Butler, Oklahoma
Current Conditions -  °F | °C
As of 8:15 AM on Monday 20 Oct 2014 (Local Time) from KCLK Reporting Station
Haze Haze  
Wind Chill: 13°   Ceiling: Unl
Heat Index: 13°   Visibility: 4mi
Dew Point: 12°   Wind: 6mph
Humidity: 94%   Direction: 170°S
Pressure: 30.06"   Gusts: NA
Location:  35.64°N, 99.19°W
Report Text: KCLK 201315Z AUTO 17005KT 4SM BR CLR 13/12 A3006 RMK AO2
Loading
Personal Weather Stations






























Interactive Weather Map
Tropical Storm Tracking
New forecast layout! Learn more

10-Day Weather Forecast

Advertisements
Track Severe Weather on mobile